createdAt,value
2019-01-11T00:04:38.164Z,97580.60
2019-01-11T00:09:56.595Z,97588.92
2019-01-11T00:15:14.715Z,97585.91
2019-01-11T00:20:32.774Z,97592.58
2019-01-11T00:25:50.891Z,97597.95
2019-01-11T00:31:08.213Z,97601.81
2019-01-11T00:36:27.516Z,97612.33
2019-01-11T00:41:45.416Z,97620.63
2019-01-11T00:47:02.960Z,97630.81
2019-01-11T00:52:20.288Z,97647.20
2019-01-11T00:57:38.089Z,97644.58
2019-01-11T01:02:55.450Z,97649.70
2019-01-11T01:08:15.114Z,97649.31
2019-01-11T01:13:34.055Z,97661.25
2019-01-11T01:18:51.710Z,97663.03
2019-01-11T01:24:10.438Z,97666.16
2019-01-11T01:29:27.803Z,97664.62
2019-01-11T01:34:45.476Z,97669.29
2019-01-11T01:40:02.803Z,97670.94
2019-01-11T01:45:20.152Z,97675.63
2019-01-11T01:50:38.098Z,97668.37
2019-01-11T01:55:55.884Z,97672.30
2019-01-11T02:01:13.524Z,97669.83
2019-01-11T02:06:31.454Z,97667.19
2019-01-11T02:11:49.092Z,97670.67
2019-01-11T02:17:07.744Z,97671.41
2019-01-11T02:22:26.237Z,97663.70
2019-01-11T02:27:44.836Z,97666.34
2019-01-11T02:33:02.356Z,97671.75
2019-01-11T02:38:21.350Z,97672.45
2019-01-11T02:43:39.199Z,97669.51
2019-01-11T02:48:56.836Z,97669.51
2019-01-11T02:54:14.083Z,97674.89
2019-01-11T02:59:32.055Z,97674.97
2019-01-11T03:04:49.472Z,97660.75
2019-01-11T03:10:08.554Z,97663.91
2019-01-11T03:15:27.381Z,97659.94
2019-01-11T03:20:44.927Z,97658.25
2019-01-11T03:26:02.534Z,97663.02
2019-01-11T03:31:31.996Z,97660.60
2019-01-11T03:36:50.642Z,97657.89
2019-01-11T03:42:11.550Z,97657.37
2019-01-11T03:47:30.046Z,97646.97
2019-01-11T03:52:49.262Z,97663.05
2019-01-11T03:58:06.777Z,97660.41
2019-01-11T04:03:25.518Z,97663.23
2019-01-11T04:08:43.288Z,97667.63
2019-01-11T04:14:02.800Z,97673.16
2019-01-11T04:19:21.704Z,97668.63
2019-01-11T04:24:54.176Z,97679.58
2019-01-11T04:30:13.306Z,97679.51
2019-01-11T04:35:34.958Z,97670.57
2019-01-11T04:40:52.680Z,97670.94
2019-01-11T04:46:10.534Z,97674.94
2019-01-11T04:51:27.704Z,97682.64
2019-01-11T04:56:45.347Z,97678.76
2019-01-11T05:02:02.869Z,97689.64
2019-01-11T05:07:21.098Z,97688.22
2019-01-11T05:12:38.417Z,97692.88
2019-01-11T05:17:56.180Z,97694.38
2019-01-11T05:23:14.918Z,97690.67
2019-01-11T05:28:33.472Z,97697.67
2019-01-11T05:33:50.850Z,97698.11
2019-01-11T05:39:11.038Z,97694.41
2019-01-11T05:44:28.805Z,97707.97
2019-01-11T05:49:46.782Z,97703.68
2019-01-11T05:55:04.478Z,97700.63
2019-01-11T06:00:22.462Z,97713.31
2019-01-11T06:05:40.144Z,97714.67
2019-01-11T06:10:57.622Z,97726.12
2019-01-11T06:16:15.438Z,97725.23
2019-01-11T06:21:33.044Z,97730.06
2019-01-11T06:26:50.440Z,97722.01
2019-01-11T06:32:08.273Z,97726.00
2019-01-11T06:37:27.193Z,97728.20
2019-01-11T06:42:44.544Z,97730.52
2019-01-11T06:48:02.810Z,97737.56
2019-01-11T06:53:20.215Z,97739.27
2019-01-11T06:58:39.010Z,97743.56
2019-01-11T07:03:57.997Z,97745.19
2019-01-11T07:09:15.455Z,97746.89
2019-01-11T07:14:32.701Z,97752.33
2019-01-11T07:19:50.020Z,97762.35
2019-01-11T07:25:07.839Z,97762.01
2019-01-11T07:30:31.620Z,97750.80
2019-01-11T07:35:52.755Z,97765.20
2019-01-11T07:41:10.430Z,97768.47
2019-01-11T07:46:28.285Z,97771.42
2019-01-11T07:51:47.021Z,97763.64
2019-01-11T07:57:04.653Z,97768.42
2019-01-11T08:02:22.168Z,97770.55
2019-01-11T08:07:39.528Z,97766.91
2019-01-11T08:12:57.213Z,97774.67
2019-01-11T08:18:15.158Z,97770.43
2019-01-11T08:23:33.615Z,97773.70
2019-01-11T08:28:52.858Z,97779.45
2019-01-11T08:34:10.447Z,97773.36
2019-01-11T08:39:32.377Z,97775.16
2019-01-11T08:44:46.374Z,97774.09
2019-01-11T08:50:06.360Z,97783.08
2019-01-11T08:55:23.837Z,97776.25
2019-01-11T09:00:41.173Z,97782.27
2019-01-11T09:05:58.654Z,97780.83
2019-01-11T09:11:16.504Z,97782.48
2019-01-11T09:16:33.760Z,97788.58
2019-01-11T09:21:51.347Z,97798.20
2019-01-11T09:27:08.804Z,97787.00
2019-01-11T09:32:26.242Z,97782.97
2019-01-11T09:37:44.754Z,97782.80
2019-01-11T09:43:02.195Z,97779.60
2019-01-11T09:48:19.958Z,97778.77
2019-01-11T09:53:37.595Z,97790.30
2019-01-11T09:58:55.011Z,97782.98
2019-01-11T10:04:15.191Z,97774.25
2019-01-11T10:09:32.921Z,97776.42
2019-01-11T10:14:50.411Z,97740.50
2019-01-11T10:20:08.985Z,97780.64
2019-01-11T10:25:28.024Z,97769.19
2019-01-11T10:30:45.719Z,97766.03
2019-01-11T10:36:04.227Z,97766.14
2019-01-11T10:41:22.178Z,97761.14
2019-01-11T10:46:49.074Z,97763.02
2019-01-11T10:52:02.014Z,97764.42
2019-01-11T10:57:19.642Z,97759.41
2019-01-11T11:02:37.102Z,97758.31
2019-01-11T11:07:54.778Z,97756.76
2019-01-11T11:13:12.361Z,97747.38
2019-01-11T11:18:30.062Z,97723.27
2019-01-11T11:23:48.412Z,97716.06
2019-01-11T11:29:04.633Z,97704.16
2019-01-11T11:34:28.749Z,97709.72
2019-01-11T11:39:46.257Z,97711.30
2019-01-11T11:45:03.841Z,97702.97
2019-01-11T11:50:21.560Z,97693.97
2019-01-11T11:55:39.273Z,97715.75
2019-01-11T12:00:56.509Z,97698.92
2019-01-11T12:06:14.193Z,97692.69
2019-01-11T12:11:31.714Z,97691.94
2019-01-11T12:16:49.997Z,97677.33
2019-01-11T12:22:07.406Z,97685.42
2019-01-11T12:27:25.368Z,97672.66
2019-01-11T12:32:42.978Z,97667.50
2019-01-11T12:38:00.684Z,97674.38
2019-01-11T12:43:17.989Z,97671.80
2019-01-11T12:48:36.608Z,97670.33
2019-01-11T12:53:54.025Z,97661.20
2019-01-11T12:59:12.511Z,97659.41
2019-01-11T13:04:30.137Z,97664.59
2019-01-11T13:09:47.618Z,97649.47
2019-01-11T13:15:06.355Z,97635.92
2019-01-11T13:20:25.010Z,97637.94
2019-01-11T13:25:42.438Z,97647.17
2019-01-11T13:30:59.892Z,97648.90
2019-01-11T13:36:19.913Z,97635.58
2019-01-11T13:41:37.798Z,97650.31
2019-01-11T13:46:55.450Z,97647.22
2019-01-11T13:52:13.011Z,97648.34
2019-01-11T13:57:30.623Z,97639.81
2019-01-11T14:02:47.835Z,97641.93
2019-01-11T14:08:06.645Z,97636.95
2019-01-11T14:13:24.450Z,97643.56
2019-01-11T14:18:42.029Z,97626.65
2019-01-11T14:24:00.282Z,97621.83
2019-01-11T14:29:18.094Z,97626.11
2019-01-11T14:34:35.430Z,97631.55
2019-01-11T14:39:53.065Z,97626.42
2019-01-11T14:45:11.553Z,97615.02
2019-01-11T14:50:28.988Z,97617.08
2019-01-11T14:55:46.686Z,97602.96
2019-01-11T15:01:04.016Z,97607.70
2019-01-11T15:06:22.989Z,97599.39
2019-01-11T15:11:41.554Z,97599.70
2019-01-11T15:16:59.345Z,97589.80
2019-01-11T15:22:16.857Z,97587.07
2019-01-11T15:27:34.479Z,97584.51
2019-01-11T15:32:51.933Z,97581.70
2019-01-11T15:38:09.627Z,97579.73
2019-01-11T15:43:28.235Z,97575.36
2019-01-11T15:48:49.672Z,97566.52
2019-01-11T15:54:09.154Z,97567.48
2019-01-11T15:59:28.046Z,97557.89
2019-01-11T16:04:45.263Z,97558.81
2019-01-11T16:10:06.083Z,97558.73
2019-01-11T16:15:45.262Z,97548.97
2019-01-11T16:21:02.977Z,97546.59
2019-01-11T16:26:20.964Z,97535.53
2019-01-11T16:31:38.575Z,97528.53
2019-01-11T16:36:56.509Z,97529.89
2019-01-11T16:42:16.029Z,97516.84
2019-01-11T16:47:33.790Z,97510.21
2019-01-11T16:52:51.339Z,97525.05
2019-01-11T16:58:08.601Z,97514.07
2019-01-11T17:03:27.969Z,97512.56
2019-01-11T17:08:46.268Z,97505.86
2019-01-11T17:14:04.868Z,97510.05
2019-01-11T17:19:23.756Z,97501.55
2019-01-11T17:24:41.464Z,97500.37
2019-01-11T17:29:59.345Z,97506.38
2019-01-11T17:35:16.940Z,97505.44
2019-01-11T17:40:34.647Z,97504.84
2019-01-11T17:45:53.459Z,97488.81
2019-01-11T17:51:11.315Z,97485.62
2019-01-11T17:56:29.313Z,97483.82
2019-01-11T18:01:48.336Z,97488.25
2019-01-11T18:07:06.500Z,97495.27
2019-01-11T18:12:24.610Z,97487.00
2019-01-11T18:20:25.908Z,97487.33
2019-01-11T18:25:43.567Z,97503.61
2019-01-11T18:31:01.367Z,97474.11
2019-01-11T18:36:18.852Z,97466.71
2019-01-11T18:41:36.441Z,97454.89
2019-01-11T18:46:54.614Z,97466.70
2019-01-11T18:52:12.782Z,97477.94
2019-01-11T18:57:32.190Z,97464.33
2019-01-11T19:02:50.920Z,97454.38
2019-01-11T19:08:08.467Z,97458.25
2019-01-11T19:13:26.135Z,97452.72
2019-01-11T19:18:43.943Z,97451.62
2019-01-11T19:24:01.933Z,97457.53
2019-01-11T19:29:20.855Z,97461.20
2019-01-11T19:34:38.424Z,97452.85
2019-01-11T19:39:56.913Z,97465.93
2019-01-11T19:45:14.682Z,97440.23
2019-01-11T19:50:32.741Z,97431.06
2019-01-11T19:55:58.567Z,97432.29
2019-01-11T20:01:09.212Z,97421.03
2019-01-11T20:06:30.658Z,97435.67
2019-01-11T20:11:48.871Z,97422.64
2019-01-11T20:17:14.094Z,97422.92
2019-01-11T20:22:25.904Z,97427.97
2019-01-11T20:27:44.005Z,97422.47
2019-01-11T20:33:01.484Z,97422.30
2019-01-11T20:38:19.344Z,97422.52
2019-01-11T20:43:37.741Z,97426.11
2019-01-11T20:48:56.496Z,97424.25
2019-01-11T20:54:14.144Z,97422.66
2019-01-11T20:59:31.824Z,97421.42
2019-01-11T21:04:49.338Z,97410.02
2019-01-11T21:10:07.529Z,97427.97
2019-01-11T21:15:25.786Z,97418.62
2019-01-11T21:20:43.470Z,97415.20
2019-01-11T21:26:01.473Z,97420.17
2019-01-11T21:31:18.921Z,97409.31
2019-01-11T21:36:37.272Z,97416.71
2019-01-11T21:41:56.522Z,97392.73
2019-01-11T21:47:15.026Z,97391.49
2019-01-11T21:52:32.902Z,97382.89
2019-01-11T21:57:51.076Z,97392.34
2019-01-11T22:03:10.733Z,97394.64
2019-01-11T22:08:31.461Z,97379.07
2019-01-11T22:13:49.491Z,97391.27
2019-01-11T22:19:06.899Z,97378.41
2019-01-11T22:24:24.487Z,97383.28
2019-01-11T22:29:44.430Z,97369.71
2019-01-11T22:35:01.840Z,97359.88
2019-01-11T22:40:20.651Z,97359.30
2019-01-11T22:45:38.104Z,97367.14
2019-01-11T22:50:56.456Z,97350.16
2019-01-11T22:56:14.900Z,97360.08
2019-01-11T23:02:01.936Z,97364.66
2019-01-11T23:07:27.882Z,97351.34
2019-01-11T23:12:52.808Z,97366.78
2019-01-11T23:18:12.247Z,97364.21
2019-01-11T23:23:29.492Z,97367.35
2019-01-11T23:28:48.939Z,97367.02
2019-01-11T23:34:06.790Z,97345.52
2019-01-11T23:39:24.275Z,97351.94
2019-01-11T23:44:43.243Z,97380.42
2019-01-11T23:50:01.647Z,97361.24
2019-01-11T23:55:19.219Z,97366.11
